Time;durP1;ratioP1;P1;durP2;ratioP2;P2;SDS_P1;SDS_P2;PMS_P1;PMS_P2;Temp;Humidity;BMP_temperature;BMP_pressure;BME280_temperature;BME280_humidity;BME280_pressure;Samples;Min_cycle;Max_cycle;Signal;HPM_P1;HPM_P2
2024/03/13 00:02:11;;;;;;;12.45;4.70;;;10.30;99.90;;;;;;5030816;28;20163;-79
2024/03/13 00:04:43;;;;;;;9.60;5.18;;;10.30;99.90;;;;;;5006496;28;20058;-80
2024/03/13 00:07:15;;;;;;;8.95;4.53;;;10.30;99.90;;;;;;5012052;28;20399;-79
2024/03/13 00:09:50;;;;;;;8.18;5.00;;;10.30;99.90;;;;;;5030405;28;20022;-79
2024/03/13 00:12:17;;;;;;;7.70;4.57;;;10.30;99.90;;;;;;5010741;28;20031;-80
2024/03/13 00:14:49;;;;;;;10.82;4.55;;;10.30;99.90;;;;;;5011573;28;20025;-79
2024/03/13 00:17:21;;;;;;;11.68;4.78;;;10.30;99.90;;;;;;5011113;28;20372;-80
2024/03/13 00:19:50;;;;;;;6.90;4.13;;;10.30;99.90;;;;;;5027196;28;20124;-80
2024/03/13 00:22:18;;;;;;;7.75;4.32;;;10.30;99.90;;;;;;5028713;28;20029;-79
2024/03/13 00:24:46;;;;;;;10.15;4.90;;;10.30;99.90;;;;;;5026428;28;20025;-79
2024/03/13 00:27:12;;;;;;;8.95;5.13;;;10.30;99.90;;;;;;5029704;28;20087;-80
2024/03/13 00:29:38;;;;;;;7.75;4.75;;;10.30;99.90;;;;;;5027440;28;20030;-79
2024/03/13 00:32:04;;;;;;;9.65;4.40;;;10.30;99.90;;;;;;5029745;28;20033;-79
2024/03/13 00:34:30;;;;;;;7.72;4.18;;;10.30;99.90;;;;;;5010236;28;20049;-79
2024/03/13 00:36:55;;;;;;;8.52;4.15;;;10.30;99.90;;;;;;5009835;28;20082;-79
2024/03/13 00:39:22;;;;;;;7.50;3.90;;;10.30;99.90;;;;;;5008422;28;20076;-80
2024/03/13 00:41:48;;;;;;;6.40;3.85;;;10.30;99.90;;;;;;5028546;28;20018;-78
2024/03/13 00:44:14;;;;;;;7.53;4.15;;;10.20;99.90;;;;;;5027192;28;20017;-79
2024/03/13 00:46:40;;;;;;;9.55;4.15;;;10.20;99.90;;;;;;5010744;28;20017;-79
2024/03/13 00:49:07;;;;;;;6.40;3.60;;;10.20;99.90;;;;;;5030352;28;20517;-79
2024/03/13 00:51:33;;;;;;;6.72;3.50;;;10.20;99.90;;;;;;5010556;28;20067;-80
2024/03/13 00:54:04;;;;;;;9.98;4.07;;;10.20;99.90;;;;;;5029428;28;20006;-80
2024/03/13 00:56:33;;;;;;;10.93;3.67;;;10.20;99.90;;;;;;5012112;28;20360;-79
2024/03/13 00:58:59;;;;;;;8.05;3.55;;;10.20;99.90;;;;;;5027679;28;20047;-80
2024/03/13 01:01:25;;;;;;;6.10;3.70;;;10.20;99.90;;;;;;5010324;28;20026;-80
2024/03/13 01:03:57;;;;;;;6.70;3.75;;;10.20;99.90;;;;;;5011561;28;20392;-79
2024/03/13 01:06:28;;;;;;;5.47;3.08;;;10.20;99.90;;;;;;5009647;28;20029;-79
2024/03/13 01:08:57;;;;;;;5.70;3.30;;;10.20;99.90;;;;;;5007608;28;20471;-80
2024/03/13 01:11:24;;;;;;;6.90;3.10;;;10.20;99.90;;;;;;5030282;28;20029;-79
2024/03/13 01:13:50;;;;;;;8.05;3.50;;;10.20;99.90;;;;;;5028551;28;20472;-79
2024/03/13 01:16:16;;;;;;;7.20;3.08;;;10.20;99.90;;;;;;5031642;28;20026;-79
2024/03/13 01:18:42;;;;;;;6.22;4.00;;;10.20;99.90;;;;;;5029748;28;20075;-79
2024/03/13 01:21:08;;;;;;;5.95;3.70;;;10.20;99.90;;;;;;5027199;28;20487;-79
2024/03/13 01:23:33;;;;;;;8.68;3.97;;;10.20;99.90;;;;;;5026367;28;20390;-79
2024/03/13 01:26:04;;;;;;;7.65;3.35;;;10.20;99.90;;;;;;5029678;28;20037;-79
2024/03/13 01:28:30;;;;;;;6.38;3.00;;;10.20;99.90;;;;;;5026797;28;20013;-80
2024/03/13 01:30:56;;;;;;;3.92;2.85;;;10.10;99.90;;;;;;5009116;28;20021;-79
2024/03/13 01:33:21;;;;;;;4.43;2.65;;;10.10;99.90;;;;;;5029200;28;20104;-79
2024/03/13 01:35:47;;;;;;;5.30;3.20;;;10.20;99.90;;;;;;5006683;28;20037;-81
2024/03/13 01:38:13;;;;;;;9.50;2.88;;;10.10;99.90;;;;;;5025189;28;20022;-78
2024/03/13 01:57:32;;;;;;;2.97;1.73;;;10.10;99.90;;;;;;4963647;28;20041;-79
2024/03/13 02:02:47;;;;;;;1.70;1.50;;;10.10;99.90;;;;;;5028131;28;20061;-79
2024/03/13 02:05:15;;;;;;;1.77;1.38;;;10.10;99.90;;;;;;5011821;28;20075;-79
2024/03/13 02:07:40;;;;;;;3.10;1.48;;;10.10;99.90;;;;;;5009506;28;20021;-79
2024/03/13 02:10:06;;;;;;;2.10;1.17;;;10.10;99.90;;;;;;5007945;28;20128;-79
2024/03/13 02:12:32;;;;;;;2.78;1.20;;;10.10;99.90;;;;;;5011277;28;20022;-80
2024/03/13 02:14:58;;;;;;;4.40;1.17;;;10.10;99.90;;;;;;5006385;28;20036;-79
2024/03/13 02:17:23;;;;;;;2.20;1.50;;;10.10;99.90;;;;;;5008708;28;20538;-80
2024/03/13 02:19:50;;;;;;;1.77;1.33;;;10.10;99.90;;;;;;5025959;28;20018;-80
2024/03/13 02:22:16;;;;;;;1.75;1.13;;;10.10;99.90;;;;;;5011418;28;20026;-79
2024/03/13 02:24:43;;;;;;;1.42;1.30;;;10.10;99.90;;;;;;5007490;28;20022;-79
2024/03/13 02:27:12;;;;;;;2.72;1.80;;;10.20;99.90;;;;;;5007215;28;20035;-80
2024/03/13 02:29:41;;;;;;;1.13;1.02;;;10.20;99.90;;;;;;5027125;28;20041;-79
2024/03/13 02:32:06;;;;;;;2.95;1.23;;;10.10;99.90;;;;;;5010165;28;20037;-80
2024/03/13 02:34:34;;;;;;;1.20;1.10;;;10.10;99.90;;;;;;5008987;28;20083;-79
2024/03/13 02:36:59;;;;;;;1.92;1.17;;;10.10;99.90;;;;;;5027578;28;20024;-79
2024/03/13 02:39:26;;;;;;;2.75;1.38;;;10.10;99.90;;;;;;5007158;28;20034;-79
2024/03/13 02:41:52;;;;;;;1.08;0.90;;;10.10;99.90;;;;;;5027398;28;20357;-79
2024/03/13 02:44:17;;;;;;;1.20;1.10;;;10.10;99.90;;;;;;5027917;28;20033;-79
2024/03/13 02:46:43;;;;;;;0.80;0.80;;;10.10;99.90;;;;;;5028033;28;20029;-78
2024/03/13 02:49:09;;;;;;;3.95;0.95;;;10.10;99.90;;;;;;5027243;28;20021;-80
2024/03/13 02:51:35;;;;;;;0.80;0.80;;;10.10;99.90;;;;;;5030671;28;20111;-78
2024/03/13 02:54:00;;;;;;;1.67;1.02;;;10.10;99.90;;;;;;5012893;28;20049;-80
2024/03/13 02:56:26;;;;;;;4.65;0.90;;;10.10;99.90;;;;;;5031514;28;20037;-79
2024/03/13 02:58:52;;;;;;;0.85;0.85;;;10.10;99.90;;;;;;5013708;28;20026;-80
2024/03/13 03:01:18;;;;;;;5.18;1.13;;;10.10;99.90;;;;;;5032737;28;20025;-79
2024/03/13 03:03:43;;;;;;;1.10;1.00;;;10.10;99.90;;;;;;5010980;28;20046;-79
2024/03/13 03:06:09;;;;;;;1.25;1.00;;;10.10;99.90;;;;;;5031907;28;20101;-79
2024/03/13 03:08:37;;;;;;;1.27;1.00;;;10.10;99.90;;;;;;5032181;28;20112;-78
2024/03/13 03:11:03;;;;;;;1.73;1.17;;;10.10;99.90;;;;;;5013087;28;20026;-80
2024/03/13 03:13:34;;;;;;;1.17;0.95;;;10.10;99.90;;;;;;5031243;28;20021;-79
2024/03/13 03:16:00;;;;;;;1.10;1.00;;;10.10;99.90;;;;;;5023998;28;20655;-81
2024/03/13 03:18:26;;;;;;;1.38;1.00;;;10.10;99.90;;;;;;5014532;28;20109;-79
2024/03/13 03:20:52;;;;;;;1.80;0.98;;;10.10;99.90;;;;;;5031506;28;20050;-79
2024/03/13 03:23:18;;;;;;;2.50;1.10;;;10.10;99.90;;;;;;5031929;28;20056;-79
2024/03/13 03:25:44;;;;;;;1.65;0.70;;;10.10;99.90;;;;;;5013813;28;20112;-80
2024/03/13 03:28:13;;;;;;;1.13;1.00;;;10.10;99.90;;;;;;5013202;28;20112;-78
2024/03/13 03:30:42;;;;;;;1.27;0.90;;;10.10;99.90;;;;;;5030567;28;20017;-80
2024/03/13 03:33:13;;;;;;;1.15;1.00;;;10.10;99.90;;;;;;5014382;28;20029;-80
2024/03/13 03:35:39;;;;;;;1.20;1.10;;;10.10;99.90;;;;;;5010352;28;20013;-79
2024/03/13 03:38:05;;;;;;;1.27;1.13;;;10.10;99.90;;;;;;5028487;28;20026;-79
2024/03/13 03:40:34;;;;;;;5.57;1.00;;;10.10;99.90;;;;;;5032063;28;20040;-79
2024/03/13 03:43:00;;;;;;;1.20;1.10;;;10.10;99.90;;;;;;5011134;28;20053;-78
2024/03/13 03:45:25;;;;;;;2.17;1.30;;;10.10;99.90;;;;;;5008913;28;20126;-80
2024/03/13 03:47:51;;;;;;;4.28;0.90;;;10.10;99.90;;;;;;5013580;28;20550;-79
2024/03/13 03:50:17;;;;;;;1.40;1.30;;;10.10;99.90;;;;;;5013576;28;20471;-79
2024/03/13 03:52:46;;;;;;;4.15;1.15;;;10.10;99.90;;;;;;5030766;28;20486;-81
2024/03/13 03:55:11;;;;;;;1.08;0.90;;;10.10;99.90;;;;;;5008620;28;20578;-80
2024/03/13 03:57:39;;;;;;;1.48;1.30;;;10.10;99.90;;;;;;5031049;28;20014;-79
2024/03/13 04:00:06;;;;;;;1.10;1.00;;;10.10;99.90;;;;;;5012855;28;20037;-79
2024/03/13 04:02:33;;;;;;;2.38;1.30;;;10.10;99.90;;;;;;5031234;28;20021;-79
2024/03/13 04:04:58;;;;;;;1.50;1.10;;;10.10;99.90;;;;;;5011277;28;20022;-80
2024/03/13 04:07:24;;;;;;;0.90;0.90;;;10.10;99.90;;;;;;5007906;28;20025;-79
2024/03/13 04:09:49;;;;;;;1.67;0.90;;;10.10;99.90;;;;;;5031282;28;20034;-81
2024/03/13 04:12:15;;;;;;;1.00;1.00;;;10.10;99.90;;;;;;5013668;28;20402;-79
2024/03/13 04:14:40;;;;;;;1.50;1.08;;;10.10;99.90;;;;;;5032159;28;20045;-79
2024/03/13 04:17:09;;;;;;;1.10;1.00;;;10.10;99.90;;;;;;5031213;28;20584;-79
2024/03/13 04:19:35;;;;;;;1.20;1.10;;;10.10;99.90;;;;;;5007680;28;20013;-79
2024/03/13 04:22:00;;;;;;;1.85;1.02;;;10.10;99.90;;;;;;5012966;28;20087;-79
2024/03/13 04:24:26;;;;;;;1.35;1.00;;;10.10;99.90;;;;;;5013371;28;20064;-80
2024/03/13 04:26:51;;;;;;;3.22;1.10;;;10.10;99.90;;;;;;5010047;28;20026;-79
2024/03/13 04:29:17;;;;;;;3.08;1.27;;;10.10;99.90;;;;;;5008751;28;20021;-79
2024/03/13 04:31:43;;;;;;;2.50;1.15;;;10.10;99.90;;;;;;5013064;28;20085;-79
2024/03/13 04:34:08;;;;;;;1.92;1.10;;;10.10;99.90;;;;;;5008274;28;20049;-78
2024/03/13 04:36:39;;;;;;;5.47;1.50;;;10.10;99.90;;;;;;5030296;28;20021;-79
2024/03/13 04:39:06;;;;;;;5.03;1.63;;;10.10;99.90;;;;;;5012811;28;20029;-78
2024/03/13 04:41:33;;;;;;;2.40;1.70;;;10.10;99.90;;;;;;5003362;28;20101;-79
2024/03/13 04:44:00;;;;;;;3.22;1.38;;;10.10;99.90;;;;;;5012333;28;20406;-79
2024/03/13 04:46:25;;;;;;;3.35;1.70;;;10.10;99.90;;;;;;5028488;28;20541;-79
2024/03/13 04:48:52;;;;;;;1.08;0.98;;;10.10;99.90;;;;;;5009782;28;20025;-80
2024/03/13 04:51:18;;;;;;;4.30;1.48;;;10.10;99.90;;;;;;5012870;28;20463;-79
2024/03/13 04:53:44;;;;;;;2.65;1.15;;;10.10;99.90;;;;;;5029621;28;20690;-79
2024/03/13 04:56:13;;;;;;;0.85;0.85;;;10.10;99.90;;;;;;5012503;28;20036;-79
2024/03/13 04:58:39;;;;;;;3.58;1.25;;;10.10;99.90;;;;;;5012423;28;20546;-78
2024/03/13 05:01:04;;;;;;;2.25;1.20;;;10.10;99.90;;;;;;5012032;28;20045;-80
2024/03/13 05:03:30;;;;;;;1.73;1.08;;;10.10;99.90;;;;;;5023326;28;20029;-79
2024/03/13 05:05:57;;;;;;;1.23;0.93;;;10.10;99.90;;;;;;5029968;28;20030;-79
2024/03/13 05:08:22;;;;;;;5.13;0.93;;;10.10;99.90;;;;;;5010071;28;20067;-79
2024/03/13 05:10:48;;;;;;;1.75;1.08;;;10.10;99.90;;;;;;5012196;28;20490;-79
2024/03/13 05:13:15;;;;;;;1.52;1.10;;;10.10;99.90;;;;;;5012037;28;20024;-79
2024/03/13 05:15:41;;;;;;;0.98;0.95;;;10.10;99.90;;;;;;5011685;28;20021;-79
2024/03/13 05:18:07;;;;;;;0.95;0.95;;;10.10;99.90;;;;;;5029943;28;20022;-79
2024/03/13 05:20:32;;;;;;;2.10;1.20;;;10.10;99.90;;;;;;5012414;28;20468;-79
2024/03/13 05:22:58;;;;;;;1.27;1.17;;;10.10;99.90;;;;;;5029691;28;20045;-78
2024/03/13 05:25:24;;;;;;;1.40;0.90;;;10.10;99.90;;;;;;5029460;28;20055;-79
2024/03/13 05:27:49;;;;;;;1.65;1.13;;;10.10;99.90;;;;;;5029730;28;20089;-79
2024/03/13 05:30:18;;;;;;;2.40;1.23;;;10.10;99.90;;;;;;5011860;28;20033;-79
2024/03/13 05:32:44;;;;;;;1.65;1.10;;;10.10;99.90;;;;;;5008696;28;20017;-79
2024/03/13 05:35:09;;;;;;;1.15;1.02;;;10.10;99.90;;;;;;5022966;28;20025;-81
2024/03/13 05:37:35;;;;;;;1.17;1.05;;;10.10;99.90;;;;;;5009907;28;20017;-79
2024/03/13 05:40:16;;;;;;;1.58;1.48;;;10.10;99.90;;;;;;5029524;28;20029;-79
2024/03/13 05:42:42;;;;;;;2.47;1.15;;;10.00;99.90;;;;;;5028953;28;20527;-80
2024/03/13 05:45:08;;;;;;;1.05;0.98;;;10.00;99.90;;;;;;5027311;28;20100;-78
2024/03/13 05:47:34;;;;;;;1.08;1.02;;;10.10;99.90;;;;;;5011387;28;20379;-79
2024/03/13 05:50:00;;;;;;;1.40;1.30;;;10.10;99.90;;;;;;5029545;28;20042;-80
2024/03/13 05:52:26;;;;;;;2.45;1.20;;;10.10;99.90;;;;;;5011746;28;20025;-79
2024/03/13 05:54:51;;;;;;;5.55;1.38;;;10.10;99.90;;;;;;5029390;28;20369;-79
2024/03/13 05:57:21;;;;;;;2.05;1.52;;;10.10;99.90;;;;;;5008230;28;20027;-79
2024/03/13 05:59:50;;;;;;;1.55;1.40;;;10.10;99.90;;;;;;5023946;28;20026;-79
2024/03/13 06:02:16;;;;;;;1.95;1.30;;;10.10;99.90;;;;;;5011165;28;20495;-79
2024/03/13 06:04:42;;;;;;;1.33;1.17;;;10.10;99.90;;;;;;5029209;28;20030;-78
2024/03/13 06:07:08;;;;;;;1.60;1.20;;;10.10;99.90;;;;;;5026297;28;20033;-80
2024/03/13 06:09:33;;;;;;;2.72;1.67;;;10.10;99.90;;;;;;5011892;28;20684;-79
2024/03/13 06:11:59;;;;;;;1.30;1.20;;;10.10;99.90;;;;;;5028925;28;20026;-79
2024/03/13 06:14:25;;;;;;;1.40;1.30;;;10.10;99.90;;;;;;5011427;28;20017;-80
2024/03/13 06:16:50;;;;;;;1.60;1.48;;;10.10;99.90;;;;;;5028922;28;20851;-78
2024/03/13 06:19:16;;;;;;;2.33;1.50;;;10.10;99.90;;;;;;5011112;28;20486;-79
2024/03/13 06:21:41;;;;;;;1.58;1.35;;;10.10;99.90;;;;;;4999666;28;20483;-80
2024/03/13 06:24:07;;;;;;;2.30;1.73;;;10.10;99.90;;;;;;5011771;28;20052;-79
2024/03/13 06:26:33;;;;;;;2.08;1.50;;;10.10;99.90;;;;;;5032242;28;20029;-79
2024/03/13 06:31:43;;;;;;;1.88;1.67;;;10.10;99.90;;;;;;5030439;28;20087;-79
2024/03/13 06:34:10;;;;;;;1.52;1.42;;;10.10;99.90;;;;;;5026356;28;20025;-79
2024/03/13 06:36:37;;;;;;;2.28;1.80;;;10.10;99.90;;;;;;5006380;28;20116;-80
2024/03/13 06:39:03;;;;;;;1.92;1.70;;;10.10;99.90;;;;;;5032036;28;20150;-78
2024/03/13 06:41:29;;;;;;;2.92;1.95;;;10.10;99.90;;;;;;5012496;28;20660;-79
2024/03/13 06:43:55;;;;;;;2.20;1.95;;;10.10;99.90;;;;;;5006455;28;20053;-80
2024/03/13 06:46:20;;;;;;;2.60;1.85;;;10.10;99.90;;;;;;5011977;28;20017;-80
2024/03/13 06:48:46;;;;;;;2.70;1.70;;;10.10;99.90;;;;;;5028637;28;20450;-78
2024/03/13 06:51:13;;;;;;;2.53;1.95;;;10.10;99.90;;;;;;5011547;28;20083;-79
2024/03/13 06:53:38;;;;;;;2.00;1.80;;;10.10;99.90;;;;;;5032362;28;20025;-80
2024/03/13 06:56:04;;;;;;;3.22;2.35;;;10.10;99.90;;;;;;5014517;28;20073;-79
2024/03/13 06:58:31;;;;;;;2.20;2.00;;;10.10;99.90;;;;;;5030941;28;20399;-79
2024/03/13 07:00:57;;;;;;;2.92;2.08;;;10.10;99.90;;;;;;5015154;28;20028;-79
2024/03/13 07:03:24;;;;;;;2.45;2.22;;;10.10;99.90;;;;;;5031576;28;20147;-79
2024/03/13 07:05:53;;;;;;;2.90;2.28;;;10.10;99.90;;;;;;5010852;28;20021;-79
2024/03/13 07:08:18;;;;;;;2.50;2.10;;;10.10;99.90;;;;;;5028667;28;20135;-80
2024/03/13 07:10:44;;;;;;;2.05;1.80;;;10.10;99.90;;;;;;5014591;28;20483;-81
2024/03/13 07:13:11;;;;;;;2.85;1.92;;;10.10;99.90;;;;;;5030041;28;20033;-80
2024/03/13 07:15:39;;;;;;;2.53;1.98;;;10.10;99.90;;;;;;5010766;28;20022;-80
2024/03/13 07:18:05;;;;;;;3.63;2.08;;;10.10;99.90;;;;;;5011110;28;20037;-78
2024/03/13 07:20:30;;;;;;;1.70;1.60;;;10.10;99.90;;;;;;5032058;28;20041;-80
2024/03/13 07:22:56;;;;;;;3.53;2.05;;;10.10;99.90;;;;;;5013614;28;20056;-78
2024/03/13 07:25:22;;;;;;;2.15;1.95;;;10.10;99.90;;;;;;5029599;28;20021;-79
2024/03/13 07:27:47;;;;;;;2.28;1.95;;;10.10;99.90;;;;;;5012989;28;20022;-79
2024/03/13 07:30:15;;;;;;;2.40;1.80;;;10.10;99.90;;;;;;5010353;28;20022;-80
2024/03/13 07:32:41;;;;;;;2.78;2.03;;;10.10;99.90;;;;;;5014065;28;20061;-81
2024/03/13 07:35:10;;;;;;;3.05;2.03;;;10.10;99.90;;;;;;5013645;28;20034;-80
2024/03/13 07:37:36;;;;;;;2.35;1.92;;;10.10;99.90;;;;;;5009080;28;20369;-79
2024/03/13 07:40:02;;;;;;;2.42;1.80;;;10.10;99.90;;;;;;5008271;28;20112;-79
2024/03/13 07:42:28;;;;;;;2.63;2.08;;;10.10;99.90;;;;;;5030428;28;20023;-79
2024/03/13 07:44:54;;;;;;;2.78;2.10;;;10.10;99.90;;;;;;5012836;28;20108;-79
2024/03/13 07:47:20;;;;;;;2.50;2.30;;;10.10;99.90;;;;;;5029429;28;20017;-79
2024/03/13 07:49:46;;;;;;;2.17;1.92;;;10.10;99.90;;;;;;5011758;28;20025;-80
2024/03/13 07:52:12;;;;;;;2.53;2.03;;;10.10;99.90;;;;;;5011777;28;20033;-80
2024/03/13 07:54:38;;;;;;;2.67;2.10;;;10.10;99.90;;;;;;5005067;28;20074;-80
2024/03/13 07:57:04;;;;;;;3.40;2.30;;;10.10;99.90;;;;;;5029440;28;20419;-79
2024/03/13 07:59:30;;;;;;;2.22;1.95;;;10.10;99.90;;;;;;5028770;28;20494;-80
2024/03/13 08:01:56;;;;;;;2.60;2.28;;;10.10;99.90;;;;;;5013679;28;20056;-80
2024/03/13 08:04:23;;;;;;;3.65;2.45;;;10.10;99.90;;;;;;5013090;28;20025;-80
2024/03/13 08:06:49;;;;;;;4.45;2.17;;;10.10;99.90;;;;;;5030843;28;20380;-80
2024/03/13 08:09:15;;;;;;;3.03;2.15;;;10.10;99.90;;;;;;5031100;28;20021;-80
2024/03/13 08:11:40;;;;;;;3.65;2.17;;;10.10;99.90;;;;;;5013556;28;20017;-80
2024/03/13 08:14:06;;;;;;;3.03;2.45;;;10.10;99.90;;;;;;5010053;28;20037;-79
2024/03/13 08:16:32;;;;;;;3.17;2.55;;;10.10;99.90;;;;;;5030621;28;20029;-80
2024/03/13 08:18:58;;;;;;;2.70;2.40;;;10.10;99.90;;;;;;5013010;28;20023;-79
2024/03/13 08:21:24;;;;;;;3.20;2.13;;;10.10;99.90;;;;;;5013303;28;20014;-79
2024/03/13 08:23:50;;;;;;;3.67;2.47;;;10.10;99.90;;;;;;5012872;28;20102;-80
2024/03/13 08:26:16;;;;;;;3.35;2.53;;;10.10;99.90;;;;;;5030439;28;20065;-80
2024/03/13 08:28:41;;;;;;;2.72;2.28;;;10.20;99.90;;;;;;5011103;28;20022;-80
2024/03/13 08:31:09;;;;;;;3.63;2.30;;;10.10;99.90;;;;;;5011854;28;20056;-80
2024/03/13 08:33:35;;;;;;;3.78;2.50;;;10.10;99.90;;;;;;5006499;28;20017;-80
2024/03/13 08:36:04;;;;;;;2.33;2.13;;;10.10;99.90;;;;;;5028306;28;20523;-80
2024/03/13 08:38:30;;;;;;;7.15;2.25;;;10.10;99.90;;;;;;5029481;28;20018;-80
2024/03/13 08:40:56;;;;;;;4.28;2.60;;;10.10;99.90;;;;;;5012245;28;20108;-80
2024/03/13 08:43:23;;;;;;;3.53;2.83;;;10.10;99.90;;;;;;5003980;28;20125;-80
2024/03/13 08:45:50;;;;;;;3.75;2.55;;;10.10;99.90;;;;;;5006897;28;20021;-79
2024/03/13 08:48:15;;;;;;;4.32;2.90;;;10.10;99.90;;;;;;5019070;28;20061;-80
2024/03/13 08:50:41;;;;;;;5.15;3.28;;;10.10;99.90;;;;;;5027510;28;20041;-81
2024/03/13 08:53:07;;;;;;;4.85;3.33;;;10.10;99.90;;;;;;5027176;28;20101;-80
2024/03/13 08:55:34;;;;;;;5.05;2.80;;;10.10;99.90;;;;;;5025120;28;20027;-79
2024/03/13 08:58:03;;;;;;;4.55;3.38;;;10.10;99.90;;;;;;5020733;28;20049;-80
2024/03/13 09:00:29;;;;;;;4.45;3.25;;;10.10;99.90;;;;;;5018996;28;20456;-80
2024/03/13 09:02:57;;;;;;;4.32;3.35;;;10.10;99.90;;;;;;5020702;28;20064;-80
2024/03/13 09:05:23;;;;;;;4.90;3.63;;;10.10;99.90;;;;;;5003111;28;20044;-80
2024/03/13 09:07:49;;;;;;;5.47;4.00;;;10.20;99.90;;;;;;5027091;28;20414;-79
2024/03/13 09:10:16;;;;;;;5.18;3.97;;;10.20;99.90;;;;;;5010967;28;20064;-80
2024/03/13 09:12:42;;;;;;;5.35;4.00;;;10.20;99.90;;;;;;5028648;28;20014;-80
2024/03/13 09:15:09;;;;;;;6.43;4.35;;;10.20;99.90;;;;;;5029769;28;20037;-82
2024/03/13 09:17:35;;;;;;;5.78;4.00;;;10.20;99.90;;;;;;5010471;28;20021;-80
2024/03/13 09:20:01;;;;;;;6.80;4.05;;;10.10;99.90;;;;;;5008078;28;20026;-80
2024/03/13 09:22:27;;;;;;;5.45;4.05;;;10.20;99.90;;;;;;5029168;28;20085;-81
2024/03/13 09:24:53;;;;;;;6.57;4.90;;;10.20;99.90;;;;;;5029720;28;20072;-81
2024/03/13 09:27:19;;;;;;;7.00;4.63;;;10.20;99.90;;;;;;5025928;28;20033;-79
2024/03/13 09:29:45;;;;;;;7.32;4.57;;;10.20;99.90;;;;;;5008346;28;20025;-81
2024/03/13 09:32:11;;;;;;;6.40;4.45;;;10.20;99.90;;;;;;5006254;28;20121;-81
2024/03/13 09:34:37;;;;;;;5.45;4.18;;;10.20;99.90;;;;;;5006435;28;20026;-81
2024/03/13 09:37:07;;;;;;;6.05;4.72;;;10.20;99.90;;;;;;5029657;28;20021;-81
2024/03/13 09:39:36;;;;;;;6.22;4.20;;;10.20;99.90;;;;;;5006617;28;20100;-80
2024/03/13 09:42:06;;;;;;;5.97;4.35;;;10.20;99.90;;;;;;5007634;28;20168;-80
2024/03/13 09:44:32;;;;;;;5.30;4.13;;;10.20;99.90;;;;;;5029314;28;20032;-81
2024/03/13 09:46:59;;;;;;;5.55;4.30;;;10.20;99.90;;;;;;5029229;28;20025;-81
2024/03/13 09:49:26;;;;;;;5.70;4.30;;;10.20;99.90;;;;;;5027778;28;20053;-81
2024/03/13 09:51:52;;;;;;;4.68;3.92;;;10.20;99.90;;;;;;5007238;28;20024;-81
2024/03/13 09:54:19;;;;;;;5.20;3.50;;;10.20;99.90;;;;;;5009762;28;20511;-80
2024/03/13 09:56:47;;;;;;;5.15;3.60;;;10.20;99.90;;;;;;5007215;28;20494;-80
2024/03/13 09:59:13;;;;;;;4.10;3.03;;;10.20;99.90;;;;;;5005670;28;20040;-80
2024/03/13 10:01:47;;;;;;;4.88;3.25;;;10.20;99.90;;;;;;5026070;28;20018;-80
2024/03/13 10:04:20;;;;;;;3.78;2.72;;;10.20;99.90;;;;;;5014520;28;20101;-79
2024/03/13 10:06:53;;;;;;;3.15;2.85;;;10.20;99.90;;;;;;5009270;28;20499;-80
2024/03/13 10:09:23;;;;;;;3.22;2.80;;;10.20;99.90;;;;;;5008914;28;20025;-79
2024/03/13 10:11:51;;;;;;;3.08;2.40;;;10.20;99.90;;;;;;5030761;28;20056;-80
2024/03/13 10:14:21;;;;;;;2.70;2.42;;;10.20;99.90;;;;;;5028992;28;20041;-80
2024/03/13 10:16:52;;;;;;;2.33;2.13;;;10.20;99.90;;;;;;5009176;28;20032;-80
2024/03/13 10:19:21;;;;;;;2.33;2.13;;;10.20;99.90;;;;;;5015433;28;20252;-80
2024/03/13 10:21:47;;;;;;;3.05;2.00;;;10.20;99.90;;;;;;5014050;28;20025;-80
2024/03/13 10:24:15;;;;;;;2.80;2.60;;;10.20;99.90;;;;;;5017902;28;20387;-80
2024/03/13 10:26:45;;;;;;;2.45;2.25;;;10.20;99.90;;;;;;5035254;28;20021;-81
2024/03/13 10:29:11;;;;;;;2.70;2.10;;;10.20;99.90;;;;;;5014780;28;20406;-81
2024/03/13 10:31:38;;;;;;;3.10;2.50;;;10.20;99.90;;;;;;5016447;28;20033;-80
2024/03/13 10:34:05;;;;;;;2.50;1.98;;;10.20;99.90;;;;;;5035364;28;20025;-79
2024/03/13 10:36:31;;;;;;;2.35;2.15;;;10.20;99.90;;;;;;5034396;28;20100;-80
2024/03/13 10:38:58;;;;;;;2.55;1.85;;;10.30;99.90;;;;;;5014500;28;20117;-80
2024/03/13 10:41:23;;;;;;;3.03;2.17;;;10.30;99.90;;;;;;5013986;28;20017;-80
2024/03/13 10:43:49;;;;;;;2.35;2.00;;;10.30;99.90;;;;;;5035323;28;20078;-81
2024/03/13 10:46:15;;;;;;;2.50;2.28;;;10.30;99.90;;;;;;5014547;28;20025;-80
2024/03/13 10:48:41;;;;;;;3.03;2.70;;;10.20;99.90;;;;;;5014615;28;20156;-81
2024/03/13 10:51:13;;;;;;;3.00;2.47;;;10.20;99.90;;;;;;5014629;28;20033;-80
2024/03/13 10:53:39;;;;;;;4.07;3.05;;;10.20;99.90;;;;;;5010116;28;20044;-81
2024/03/13 10:56:13;;;;;;;3.45;2.50;;;10.20;99.90;;;;;;5029797;28;20040;-80
2024/03/13 10:58:39;;;;;;;2.92;2.55;;;10.30;99.90;;;;;;5028201;28;20525;-79
2024/03/13 11:01:04;;;;;;;3.17;2.67;;;10.30;99.90;;;;;;5017892;28;20672;-79
2024/03/13 11:03:30;;;;;;;3.80;2.53;;;10.20;99.90;;;;;;5017443;28;20025;-80
2024/03/13 11:05:57;;;;;;;2.88;2.42;;;10.30;99.90;;;;;;5035513;28;20022;-81
2024/03/13 11:08:26;;;;;;;2.25;2.00;;;10.30;99.90;;;;;;5014420;28;20654;-80
2024/03/13 11:10:53;;;;;;;5.95;2.13;;;10.30;99.90;;;;;;5008559;28;20029;-79
2024/03/13 11:13:24;;;;;;;1.88;1.77;;;10.30;99.90;;;;;;5028961;28;20056;-80
2024/03/13 11:15:52;;;;;;;2.38;2.05;;;10.30;99.90;;;;;;5009186;28;20511;-80
2024/03/13 11:18:21;;;;;;;1.92;1.73;;;10.30;99.90;;;;;;5013861;28;20060;-80
2024/03/13 11:21:09;;;;;;;2.25;1.92;;;10.30;99.90;;;;;;5012850;28;20029;-80
2024/03/13 11:23:41;;;;;;;3.22;2.40;;;10.30;99.90;;;;;;5031269;28;20026;-80
2024/03/13 11:26:09;;;;;;;2.88;1.50;;;10.30;99.90;;;;;;5010833;28;20112;-80
2024/03/13 11:28:37;;;;;;;2.05;1.55;;;10.30;99.90;;;;;;5013299;28;20033;-80
2024/03/13 11:31:09;;;;;;;1.73;1.60;;;10.30;99.90;;;;;;5028011;28;20091;-80
2024/03/13 11:33:35;;;;;;;4.25;1.63;;;10.30;99.90;;;;;;5014294;28;20030;-81
2024/03/13 11:36:01;;;;;;;1.38;1.25;;;10.30;99.90;;;;;;5013903;28;20578;-80
2024/03/13 11:38:29;;;;;;;1.48;1.33;;;10.30;99.90;;;;;;5009914;28;20049;-80
2024/03/13 11:40:55;;;;;;;2.40;1.70;;;10.30;99.90;;;;;;5013927;28;20069;-82
2024/03/13 11:43:22;;;;;;;0.95;0.93;;;10.30;99.90;;;;;;5013543;28;20022;-79
2024/03/13 11:45:48;;;;;;;1.40;1.30;;;10.30;99.90;;;;;;5030713;28;20021;-80
2024/03/13 11:48:17;;;;;;;1.45;1.20;;;10.40;99.90;;;;;;5010903;28;20482;-81
2024/03/13 11:51:01;;;;;;;1.27;1.17;;;10.30;99.90;;;;;;5031702;28;20112;-81
2024/03/13 11:53:33;;;;;;;1.17;1.08;;;10.40;99.90;;;;;;5010908;28;20092;-80
2024/03/13 11:56:00;;;;;;;2.30;0.98;;;10.40;99.90;;;;;;5027099;28;20495;-81
2024/03/13 11:58:31;;;;;;;1.70;1.20;;;10.40;99.90;;;;;;5027404;28;20017;-82
2024/03/13 12:00:56;;;;;;;1.27;1.17;;;10.40;99.90;;;;;;5024905;28;20026;-80
2024/03/13 12:03:29;;;;;;;1.35;0.90;;;10.40;99.90;;;;;;5024273;28;20029;-79
2024/03/13 12:05:56;;;;;;;1.98;1.20;;;10.40;99.90;;;;;;5007858;28;20032;-80
2024/03/13 12:08:22;;;;;;;1.20;1.10;;;10.40;99.90;;;;;;5027613;28;20022;-80
2024/03/13 12:10:49;;;;;;;1.17;1.08;;;10.40;99.90;;;;;;5010798;28;20048;-79
2024/03/13 12:13:15;;;;;;;1.50;1.40;;;10.40;99.90;;;;;;5010190;28;20034;-80
2024/03/13 12:15:44;;;;;;;1.75;1.60;;;10.40;99.90;;;;;;5008964;28;20026;-80
2024/03/13 12:18:11;;;;;;;3.40;1.50;;;10.40;99.90;;;;;;5008980;28;20388;-80
2024/03/13 12:20:37;;;;;;;1.50;1.40;;;10.30;99.90;;;;;;5030505;28;20024;-80
2024/03/13 12:23:03;;;;;;;1.80;1.65;;;10.40;99.90;;;;;;5009440;28;20037;-81
2024/03/13 12:25:29;;;;;;;2.20;1.70;;;10.40;99.90;;;;;;5009706;28;20047;-80
2024/03/13 12:27:56;;;;;;;2.00;1.85;;;10.40;99.90;;;;;;5030866;28;20026;-80
2024/03/13 12:30:24;;;;;;;2.33;2.13;;;10.40;99.90;;;;;;5013183;28;20026;-81
2024/03/13 12:32:53;;;;;;;2.58;2.15;;;10.40;99.90;;;;;;5009413;28;20025;-80
2024/03/13 12:35:18;;;;;;;2.50;2.28;;;10.40;99.90;;;;;;5030473;28;20064;-79
2024/03/13 12:37:50;;;;;;;2.17;1.92;;;10.40;99.90;;;;;;5010946;28;20057;-80
2024/03/13 12:40:16;;;;;;;3.08;2.00;;;10.40;99.90;;;;;;5012043;28;20019;-82
2024/03/13 12:42:45;;;;;;;3.20;2.55;;;10.40;99.90;;;;;;5010349;28;20028;-81
2024/03/13 12:45:11;;;;;;;3.27;2.53;;;10.30;99.90;;;;;;5007134;28;20017;-81
2024/03/13 12:47:41;;;;;;;2.65;2.13;;;10.40;99.90;;;;;;5026878;28;20032;-80
2024/03/13 12:50:11;;;;;;;;;;;10.40;99.90;;;;;;5009146;28;20031;-81
2024/03/13 12:52:39;;;;;;;3.08;2.22;;;10.40;99.90;;;;;;5010633;28;19905;-81
2024/03/13 12:55:08;;;;;;;2.92;2.17;;;10.40;99.90;;;;;;5029890;28;20034;-80
2024/03/13 12:57:37;;;;;;;3.78;2.75;;;10.40;99.90;;;;;;5011587;28;20426;-81
2024/03/13 13:00:19;;;;;;;3.92;2.42;;;10.40;99.90;;;;;;5012543;28;20487;-81
2024/03/13 13:02:47;;;;;;;2.50;2.28;;;10.40;99.90;;;;;;5028476;28;20483;-80
2024/03/13 13:05:13;;;;;;;2.53;2.00;;;10.40;99.90;;;;;;5029470;28;20100;-81
2024/03/13 13:07:51;;;;;;;2.58;2.10;;;10.40;99.90;;;;;;5009759;28;20032;-81
2024/03/13 13:10:21;;;;;;;2.22;1.80;;;10.40;99.90;;;;;;5024960;28;20029;-80